sensor_id;sensor_type;location;lat;lon;timestamp;temperature;humidity
42037;DHT22;30340;52.004;5.908;2023-03-01T00:01:50;2.80;64.20
42037;DHT22;30340;52.004;5.908;2023-03-01T00:04:16;2.80;64.30
42037;DHT22;30340;52.004;5.908;2023-03-01T00:06:45;2.80;64.30
42037;DHT22;30340;52.004;5.908;2023-03-01T00:09:15;2.80;64.30
42037;DHT22;30340;52.004;5.908;2023-03-01T00:11:41;2.80;64.40
42037;DHT22;30340;52.004;5.908;2023-03-01T00:14:07;2.80;64.40
42037;DHT22;30340;52.004;5.908;2023-03-01T00:16:35;2.70;64.30
42037;DHT22;30340;52.004;5.908;2023-03-01T00:19:01;2.70;64.40
42037;DHT22;30340;52.004;5.908;2023-03-01T00:21:27;2.70;64.40
42037;DHT22;30340;52.004;5.908;2023-03-01T00:23:54;2.70;64.50
42037;DHT22;30340;52.004;5.908;2023-03-01T00:26:21;2.70;64.50
42037;DHT22;30340;52.004;5.908;2023-03-01T00:28:47;2.70;64.60
42037;DHT22;30340;52.004;5.908;2023-03-01T00:31:15;2.70;64.60
42037;DHT22;30340;52.004;5.908;2023-03-01T00:33:42;2.60;64.60
42037;DHT22;30340;52.004;5.908;2023-03-01T00:36:08;2.60;64.70
42037;DHT22;30340;52.004;5.908;2023-03-01T00:38:42;2.60;64.70
42037;DHT22;30340;52.004;5.908;2023-03-01T00:41:09;2.60;64.80
42037;DHT22;30340;52.004;5.908;2023-03-01T00:43:35;2.50;64.80
42037;DHT22;30340;52.004;5.908;2023-03-01T00:46:10;2.50;64.80
42037;DHT22;30340;52.004;5.908;2023-03-01T00:48:36;2.50;64.90
42037;DHT22;30340;52.004;5.908;2023-03-01T00:51:19;2.40;64.90
42037;DHT22;30340;52.004;5.908;2023-03-01T00:53:46;2.40;65.00
42037;DHT22;30340;52.004;5.908;2023-03-01T00:56:13;2.40;65.00
42037;DHT22;30340;52.004;5.908;2023-03-01T00:58:39;2.40;65.10
42037;DHT22;30340;52.004;5.908;2023-03-01T01:01:17;2.40;65.10
42037;DHT22;30340;52.004;5.908;2023-03-01T01:03:58;2.30;65.20
42037;DHT22;30340;52.004;5.908;2023-03-01T01:06:26;2.30;65.10
42037;DHT22;30340;52.004;5.908;2023-03-01T01:08:52;2.30;65.20
42037;DHT22;30340;52.004;5.908;2023-03-01T01:11:19;2.20;65.30
42037;DHT22;30340;52.004;5.908;2023-03-01T01:13:46;2.20;65.30
42037;DHT22;30340;52.004;5.908;2023-03-01T01:16:13;2.20;65.40
42037;DHT22;30340;52.004;5.908;2023-03-01T01:18:39;2.20;65.40
42037;DHT22;30340;52.004;5.908;2023-03-01T01:21:08;2.20;65.40
42037;DHT22;30340;52.004;5.908;2023-03-01T01:23:34;2.20;65.50
42037;DHT22;30340;52.004;5.908;2023-03-01T01:26:04;2.10;65.50
42037;DHT22;30340;52.004;5.908;2023-03-01T01:28:30;2.10;65.50
42037;DHT22;30340;52.004;5.908;2023-03-01T01:30:55;2.00;65.60
42037;DHT22;30340;52.004;5.908;2023-03-01T01:33:21;2.00;65.70
42037;DHT22;30340;52.004;5.908;2023-03-01T01:35:46;2.00;65.80
42037;DHT22;30340;52.004;5.908;2023-03-01T01:38:12;1.90;65.80
42037;DHT22;30340;52.004;5.908;2023-03-01T01:40:45;1.90;65.80
42037;DHT22;30340;52.004;5.908;2023-03-01T01:43:20;1.90;65.90
42037;DHT22;30340;52.004;5.908;2023-03-01T01:45:47;1.90;66.00
42037;DHT22;30340;52.004;5.908;2023-03-01T01:48:20;1.80;66.00
42037;DHT22;30340;52.004;5.908;2023-03-01T01:50:56;1.70;66.00
42037;DHT22;30340;52.004;5.908;2023-03-01T01:53:24;1.70;66.10
42037;DHT22;30340;52.004;5.908;2023-03-01T01:55:55;1.70;66.20
42037;DHT22;30340;52.004;5.908;2023-03-01T01:58:24;1.70;66.20
42037;DHT22;30340;52.004;5.908;2023-03-01T02:00:50;1.70;66.30
42037;DHT22;30340;52.004;5.908;2023-03-01T02:03:25;1.60;66.20
42037;DHT22;30340;52.004;5.908;2023-03-01T02:06:06;1.60;67.00
42037;DHT22;30340;52.004;5.908;2023-03-01T02:08:38;1.60;66.40
42037;DHT22;30340;52.004;5.908;2023-03-01T02:11:07;1.60;66.40
42037;DHT22;30340;52.004;5.908;2023-03-01T02:13:33;1.60;66.40
42037;DHT22;30340;52.004;5.908;2023-03-01T02:16:13;1.60;66.40
42037;DHT22;30340;52.004;5.908;2023-03-01T02:18:40;1.60;66.40
42037;DHT22;30340;52.004;5.908;2023-03-01T02:23:50;1.50;66.50
42037;DHT22;30340;52.004;5.908;2023-03-01T02:26:26;1.50;66.50
42037;DHT22;30340;52.004;5.908;2023-03-01T02:28:55;1.50;66.70
42037;DHT22;30340;52.004;5.908;2023-03-01T02:31:22;1.50;66.80
42037;DHT22;30340;52.004;5.908;2023-03-01T02:34:07;1.50;66.80
42037;DHT22;30340;52.004;5.908;2023-03-01T02:36:43;1.40;66.70
42037;DHT22;30340;52.004;5.908;2023-03-01T02:39:15;1.40;66.80
42037;DHT22;30340;52.004;5.908;2023-03-01T02:41:49;1.40;66.80
42037;DHT22;30340;52.004;5.908;2023-03-01T02:44:16;1.40;66.90
42037;DHT22;30340;52.004;5.908;2023-03-01T02:46:46;1.50;66.90
42037;DHT22;30340;52.004;5.908;2023-03-01T02:49:38;1.50;66.80
42037;DHT22;30340;52.004;5.908;2023-03-01T02:57:32;1.40;66.90
42037;DHT22;30340;52.004;5.908;2023-03-01T03:00:03;1.40;66.80
42037;DHT22;30340;52.004;5.908;2023-03-01T03:02:32;1.40;66.90
42037;DHT22;30340;52.004;5.908;2023-03-01T03:05:08;1.40;66.90
42037;DHT22;30340;52.004;5.908;2023-03-01T03:07:36;1.40;66.90
42037;DHT22;30340;52.004;5.908;2023-03-01T03:10:04;1.50;67.00
42037;DHT22;30340;52.004;5.908;2023-03-01T03:12:30;1.40;66.90
42037;DHT22;30340;52.004;5.908;2023-03-01T03:14:56;1.40;66.90
42037;DHT22;30340;52.004;5.908;2023-03-01T03:17:22;1.40;67.00
42037;DHT22;30340;52.004;5.908;2023-03-01T03:19:47;1.40;67.00
42037;DHT22;30340;52.004;5.908;2023-03-01T03:22:13;1.40;67.10
42037;DHT22;30340;52.004;5.908;2023-03-01T03:24:39;1.40;67.20
42037;DHT22;30340;52.004;5.908;2023-03-01T03:27:05;1.40;67.30
42037;DHT22;30340;52.004;5.908;2023-03-01T03:29:32;1.40;67.30
42037;DHT22;30340;52.004;5.908;2023-03-01T03:31:58;1.50;67.30
42037;DHT22;30340;52.004;5.908;2023-03-01T03:34:24;1.50;67.20
42037;DHT22;30340;52.004;5.908;2023-03-01T03:36:53;1.50;67.20
42037;DHT22;30340;52.004;5.908;2023-03-01T03:39:23;1.60;67.20
42037;DHT22;30340;52.004;5.908;2023-03-01T03:41:48;1.50;67.20
42037;DHT22;30340;52.004;5.908;2023-03-01T03:44:14;1.60;67.20
42037;DHT22;30340;52.004;5.908;2023-03-01T03:46:39;1.60;67.20
42037;DHT22;30340;52.004;5.908;2023-03-01T03:49:05;1.60;67.20
42037;DHT22;30340;52.004;5.908;2023-03-01T03:51:31;1.60;67.20
42037;DHT22;30340;52.004;5.908;2023-03-01T03:53:56;1.60;67.20
42037;DHT22;30340;52.004;5.908;2023-03-01T03:56:22;1.60;67.20
42037;DHT22;30340;52.004;5.908;2023-03-01T03:58:53;1.60;67.20
42037;DHT22;30340;52.004;5.908;2023-03-01T04:01:19;1.60;67.20
42037;DHT22;30340;52.004;5.908;2023-03-01T04:03:44;1.60;67.30
42037;DHT22;30340;52.004;5.908;2023-03-01T04:06:14;1.60;67.40
42037;DHT22;30340;52.004;5.908;2023-03-01T04:08:40;1.60;67.30
42037;DHT22;30340;52.004;5.908;2023-03-01T04:11:06;1.60;67.40
42037;DHT22;30340;52.004;5.908;2023-03-01T04:13:51;1.60;67.30
42037;DHT22;30340;52.004;5.908;2023-03-01T04:16:18;1.70;67.30
42037;DHT22;30340;52.004;5.908;2023-03-01T04:18:44;1.70;67.30
42037;DHT22;30340;52.004;5.908;2023-03-01T04:21:10;1.70;67.40
42037;DHT22;30340;52.004;5.908;2023-03-01T04:23:37;1.70;67.40
42037;DHT22;30340;52.004;5.908;2023-03-01T04:26:03;1.70;67.40
42037;DHT22;30340;52.004;5.908;2023-03-01T04:28:33;1.70;67.40
42037;DHT22;30340;52.004;5.908;2023-03-01T04:31:04;1.70;67.40
42037;DHT22;30340;52.004;5.908;2023-03-01T04:33:48;1.70;67.50
42037;DHT22;30340;52.004;5.908;2023-03-01T04:36:15;1.60;67.40
42037;DHT22;30340;52.004;5.908;2023-03-01T04:38:41;1.60;67.50
42037;DHT22;30340;52.004;5.908;2023-03-01T04:41:09;1.60;67.40
42037;DHT22;30340;52.004;5.908;2023-03-01T04:43:35;1.60;67.50
42037;DHT22;30340;52.004;5.908;2023-03-01T04:46:03;1.60;67.50
42037;DHT22;30340;52.004;5.908;2023-03-01T04:48:30;1.60;67.50
42037;DHT22;30340;52.004;5.908;2023-03-01T04:50:56;1.60;67.60
42037;DHT22;30340;52.004;5.908;2023-03-01T04:53:22;1.60;67.60
42037;DHT22;30340;52.004;5.908;2023-03-01T04:55:47;1.60;67.50
42037;DHT22;30340;52.004;5.908;2023-03-01T04:58:13;1.50;67.60
42037;DHT22;30340;52.004;5.908;2023-03-01T05:00:38;1.50;67.60
42037;DHT22;30340;52.004;5.908;2023-03-01T05:03:04;1.50;67.60
42037;DHT22;30340;52.004;5.908;2023-03-01T05:05:35;1.50;67.70
42037;DHT22;30340;52.004;5.908;2023-03-01T05:08:04;1.50;67.70
42037;DHT22;30340;52.004;5.908;2023-03-01T05:10:32;1.50;67.70
42037;DHT22;30340;52.004;5.908;2023-03-01T05:12:59;1.50;67.70
42037;DHT22;30340;52.004;5.908;2023-03-01T05:15:26;1.50;67.70
42037;DHT22;30340;52.004;5.908;2023-03-01T05:17:52;1.60;67.80
42037;DHT22;30340;52.004;5.908;2023-03-01T05:20:19;1.60;67.80
42037;DHT22;30340;52.004;5.908;2023-03-01T05:22:48;1.50;67.80
42037;DHT22;30340;52.004;5.908;2023-03-01T05:25:14;1.60;67.80
42037;DHT22;30340;52.004;5.908;2023-03-01T05:27:39;1.60;67.80
42037;DHT22;30340;52.004;5.908;2023-03-01T05:30:06;1.50;67.70
42037;DHT22;30340;52.004;5.908;2023-03-01T05:32:43;1.50;67.90
42037;DHT22;30340;52.004;5.908;2023-03-01T05:35:10;1.50;67.80
42037;DHT22;30340;52.004;5.908;2023-03-01T05:37:47;1.50;67.80
42037;DHT22;30340;52.004;5.908;2023-03-01T05:40:18;1.50;67.80
42037;DHT22;30340;52.004;5.908;2023-03-01T05:42:46;1.50;67.90
42037;DHT22;30340;52.004;5.908;2023-03-01T05:45:13;1.50;67.90
42037;DHT22;30340;52.004;5.908;2023-03-01T05:47:41;1.50;67.90
42037;DHT22;30340;52.004;5.908;2023-03-01T05:50:10;1.50;68.00
42037;DHT22;30340;52.004;5.908;2023-03-01T05:52:36;1.50;68.00
42037;DHT22;30340;52.004;5.908;2023-03-01T05:55:01;1.50;68.00
42037;DHT22;30340;52.004;5.908;2023-03-01T05:57:28;1.50;68.00
42037;DHT22;30340;52.004;5.908;2023-03-01T05:59:54;1.50;68.10
42037;DHT22;30340;52.004;5.908;2023-03-01T06:02:20;1.50;68.10
42037;DHT22;30340;52.004;5.908;2023-03-01T06:04:45;1.50;68.10
42037;DHT22;30340;52.004;5.908;2023-03-01T06:07:11;1.50;68.10
42037;DHT22;30340;52.004;5.908;2023-03-01T06:09:36;1.50;68.10
42037;DHT22;30340;52.004;5.908;2023-03-01T06:12:02;1.50;68.10
42037;DHT22;30340;52.004;5.908;2023-03-01T06:14:27;1.40;68.10
42037;DHT22;30340;52.004;5.908;2023-03-01T06:16:53;1.40;68.20
42037;DHT22;30340;52.004;5.908;2023-03-01T06:19:18;1.40;68.20
42037;DHT22;30340;52.004;5.908;2023-03-01T06:21:44;1.40;68.20
42037;DHT22;30340;52.004;5.908;2023-03-01T06:24:10;1.30;68.20
42037;DHT22;30340;52.004;5.908;2023-03-01T06:26:35;1.30;68.40
42037;DHT22;30340;52.004;5.908;2023-03-01T06:29:01;1.30;68.40
42037;DHT22;30340;52.004;5.908;2023-03-01T06:31:26;1.40;68.60
42037;DHT22;30340;52.004;5.908;2023-03-01T06:33:52;1.40;68.50
42037;DHT22;30340;52.004;5.908;2023-03-01T06:36:17;1.40;68.50
42037;DHT22;30340;52.004;5.908;2023-03-01T06:38:46;1.50;68.60
42037;DHT22;30340;52.004;5.908;2023-03-01T06:41:12;1.50;68.40
42037;DHT22;30340;52.004;5.908;2023-03-01T06:43:37;1.50;68.40
42037;DHT22;30340;52.004;5.908;2023-03-01T06:46:06;1.50;68.40
42037;DHT22;30340;52.004;5.908;2023-03-01T06:48:34;1.60;69.00
42037;DHT22;30340;52.004;5.908;2023-03-01T06:51:00;1.60;68.30
42037;DHT22;30340;52.004;5.908;2023-03-01T06:53:27;1.60;68.40
42037;DHT22;30340;52.004;5.908;2023-03-01T06:55:56;1.60;68.40
42037;DHT22;30340;52.004;5.908;2023-03-01T06:58:22;1.70;68.40
42037;DHT22;30340;52.004;5.908;2023-03-01T07:00:48;1.70;69.00
42037;DHT22;30340;52.004;5.908;2023-03-01T07:03:14;1.70;68.30
42037;DHT22;30340;52.004;5.908;2023-03-01T07:05:39;1.80;68.40
42037;DHT22;30340;52.004;5.908;2023-03-01T07:08:05;1.80;68.20
42037;DHT22;30340;52.004;5.908;2023-03-01T07:10:30;1.90;68.10
42037;DHT22;30340;52.004;5.908;2023-03-01T07:12:57;2.00;68.10
42037;DHT22;30340;52.004;5.908;2023-03-01T07:15:24;2.00;67.90
42037;DHT22;30340;52.004;5.908;2023-03-01T07:17:50;2.10;67.90
42037;DHT22;30340;52.004;5.908;2023-03-01T07:20:17;2.20;67.80
42037;DHT22;30340;52.004;5.908;2023-03-01T07:22:43;2.20;67.70
42037;DHT22;30340;52.004;5.908;2023-03-01T07:25:10;2.20;67.50
42037;DHT22;30340;52.004;5.908;2023-03-01T07:27:36;2.30;67.50
42037;DHT22;30340;52.004;5.908;2023-03-01T07:30:02;2.30;67.50
42037;DHT22;30340;52.004;5.908;2023-03-01T07:32:28;2.40;67.40
42037;DHT22;30340;52.004;5.908;2023-03-01T07:34:54;2.40;67.50
42037;DHT22;30340;52.004;5.908;2023-03-01T07:37:19;2.40;67.40
42037;DHT22;30340;52.004;5.908;2023-03-01T07:39:45;2.40;67.50
42037;DHT22;30340;52.004;5.908;2023-03-01T07:42:10;2.40;67.40
42037;DHT22;30340;52.004;5.908;2023-03-01T07:44:36;2.40;67.40
42037;DHT22;30340;52.004;5.908;2023-03-01T07:47:03;2.50;67.40
42037;DHT22;30340;52.004;5.908;2023-03-01T07:49:28;2.50;67.30
42037;DHT22;30340;52.004;5.908;2023-03-01T07:51:54;2.50;67.30
42037;DHT22;30340;52.004;5.908;2023-03-01T07:54:20;2.60;67.30
42037;DHT22;30340;52.004;5.908;2023-03-01T07:56:46;2.70;67.30
42037;DHT22;30340;52.004;5.908;2023-03-01T07:59:11;2.70;67.20
42037;DHT22;30340;52.004;5.908;2023-03-01T08:01:37;2.80;67.10
42037;DHT22;30340;52.004;5.908;2023-03-01T08:04:03;2.90;67.00
42037;DHT22;30340;52.004;5.908;2023-03-01T08:06:34;3.00;67.00
42037;DHT22;30340;52.004;5.908;2023-03-01T08:09:00;3.00;66.90
42037;DHT22;30340;52.004;5.908;2023-03-01T08:11:25;3.10;66.90
42037;DHT22;30340;52.004;5.908;2023-03-01T08:13:53;3.20;66.80
42037;DHT22;30340;52.004;5.908;2023-03-01T08:16:20;3.20;66.70
42037;DHT22;30340;52.004;5.908;2023-03-01T08:18:45;3.30;66.70
42037;DHT22;30340;52.004;5.908;2023-03-01T08:21:14;3.30;66.50
42037;DHT22;30340;52.004;5.908;2023-03-01T08:23:40;3.40;66.60
42037;DHT22;30340;52.004;5.908;2023-03-01T08:26:10;3.50;66.60
42037;DHT22;30340;52.004;5.908;2023-03-01T08:28:36;3.50;66.50
42037;DHT22;30340;52.004;5.908;2023-03-01T08:31:02;3.60;66.50
42037;DHT22;30340;52.004;5.908;2023-03-01T08:33:28;3.70;66.90
42037;DHT22;30340;52.004;5.908;2023-03-01T08:36:03;3.80;66.20
42037;DHT22;30340;52.004;5.908;2023-03-01T08:38:28;3.90;66.20
42037;DHT22;30340;52.004;5.908;2023-03-01T08:40:54;3.90;65.40
42037;DHT22;30340;52.004;5.908;2023-03-01T08:43:19;3.90;65.40
42037;DHT22;30340;52.004;5.908;2023-03-01T08:45:47;4.00;65.60
42037;DHT22;30340;52.004;5.908;2023-03-01T08:48:13;4.10;66.20
42037;DHT22;30340;52.004;5.908;2023-03-01T08:50:39;4.10;64.90
42037;DHT22;30340;52.004;5.908;2023-03-01T08:53:04;4.10;63.50
42037;DHT22;30340;52.004;5.908;2023-03-01T08:55:30;4.10;63.70
42037;DHT22;30340;52.004;5.908;2023-03-01T08:57:55;4.10;63.20
42037;DHT22;30340;52.004;5.908;2023-03-01T09:00:23;4.10;62.70
42037;DHT22;30340;52.004;5.908;2023-03-01T09:02:48;4.20;63.20
42037;DHT22;30340;52.004;5.908;2023-03-01T09:05:14;4.30;62.70
42037;DHT22;30340;52.004;5.908;2023-03-01T09:07:40;4.30;62.80
42037;DHT22;30340;52.004;5.908;2023-03-01T09:10:05;4.30;62.20
42037;DHT22;30340;52.004;5.908;2023-03-01T09:12:31;4.30;61.80
42037;DHT22;30340;52.004;5.908;2023-03-01T09:14:56;4.40;61.80
42037;DHT22;30340;52.004;5.908;2023-03-01T09:17:22;4.40;62.20
42037;DHT22;30340;52.004;5.908;2023-03-01T09:19:47;4.60;61.60
42037;DHT22;30340;52.004;5.908;2023-03-01T09:22:14;4.60;61.80
42037;DHT22;30340;52.004;5.908;2023-03-01T09:24:39;4.60;61.70
42037;DHT22;30340;52.004;5.908;2023-03-01T09:27:06;4.60;60.30
42037;DHT22;30340;52.004;5.908;2023-03-01T09:29:35;4.70;60.80
42037;DHT22;30340;52.004;5.908;2023-03-01T09:32:00;4.70;59.80
42037;DHT22;30340;52.004;5.908;2023-03-01T09:34:26;4.60;59.40
42037;DHT22;30340;52.004;5.908;2023-03-01T09:36:52;4.60;59.90
42037;DHT22;30340;52.004;5.908;2023-03-01T09:39:18;4.70;60.00
42037;DHT22;30340;52.004;5.908;2023-03-01T09:46:45;4.70;59.50
42037;DHT22;30340;52.004;5.908;2023-03-01T09:49:15;4.70;59.00
42037;DHT22;30340;52.004;5.908;2023-03-01T09:51:43;4.70;58.90
42037;DHT22;30340;52.004;5.908;2023-03-01T09:54:13;4.90;59.80
42037;DHT22;30340;52.004;5.908;2023-03-01T09:56:49;5.00;59.70
42037;DHT22;30340;52.004;5.908;2023-03-01T10:04:47;5.00;59.10
42037;DHT22;30340;52.004;5.908;2023-03-01T10:07:39;5.10;58.40
42037;DHT22;30340;52.004;5.908;2023-03-01T10:10:08;5.10;59.00
42037;DHT22;30340;52.004;5.908;2023-03-01T10:12:40;5.20;58.90
42037;DHT22;30340;52.004;5.908;2023-03-01T10:15:25;5.20;57.70
42037;DHT22;30340;52.004;5.908;2023-03-01T10:17:58;5.30;58.70
42037;DHT22;30340;52.004;5.908;2023-03-01T10:20:41;5.30;57.90
42037;DHT22;30340;52.004;5.908;2023-03-01T10:23:08;5.30;58.20
42037;DHT22;30340;52.004;5.908;2023-03-01T10:26:11;5.30;57.30
42037;DHT22;30340;52.004;5.908;2023-03-01T10:31:41;5.30;57.60
42037;DHT22;30340;52.004;5.908;2023-03-01T10:34:12;5.40;57.90
42037;DHT22;30340;52.004;5.908;2023-03-01T10:36:39;5.50;58.60
42037;DHT22;30340;52.004;5.908;2023-03-01T10:39:13;5.60;58.20
42037;DHT22;30340;52.004;5.908;2023-03-01T10:41:58;5.60;57.90
42037;DHT22;30340;52.004;5.908;2023-03-01T10:47:14;5.70;58.20
42037;DHT22;30340;52.004;5.908;2023-03-01T10:50:36;5.70;58.20
42037;DHT22;30340;52.004;5.908;2023-03-01T10:52:37;5.70;56.90
42037;DHT22;30340;52.004;5.908;2023-03-01T10:55:36;5.70;57.20
42037;DHT22;30340;52.004;5.908;2023-03-01T11:00:47;5.70;57.00
42037;DHT22;30340;52.004;5.908;2023-03-01T11:03:15;5.70;57.40
42037;DHT22;30340;52.004;5.908;2023-03-01T11:06:01;5.90;57.80
42037;DHT22;30340;52.004;5.908;2023-03-01T11:08:42;6.00;57.40
42037;DHT22;30340;52.004;5.908;2023-03-01T11:16:32;5.80;54.90
42037;DHT22;30340;52.004;5.908;2023-03-01T11:19:03;5.90;56.60
42037;DHT22;30340;52.004;5.908;2023-03-01T11:21:31;6.10;56.90
42037;DHT22;30340;52.004;5.908;2023-03-01T11:24:00;6.20;56.30
42037;DHT22;30340;52.004;5.908;2023-03-01T11:26:27;6.10;54.50
42037;DHT22;30340;52.004;5.908;2023-03-01T11:28:56;6.10;54.40
42037;DHT22;30340;52.004;5.908;2023-03-01T11:31:24;6.10;54.80
42037;DHT22;30340;52.004;5.908;2023-03-01T11:33:54;6.10;53.80
42037;DHT22;30340;52.004;5.908;2023-03-01T11:36:30;6.10;53.90
42037;DHT22;30340;52.004;5.908;2023-03-01T11:38:57;6.10;53.60
42037;DHT22;30340;52.004;5.908;2023-03-01T11:41:31;6.20;54.50
42037;DHT22;30340;52.004;5.908;2023-03-01T11:44:03;6.30;54.10
42037;DHT22;30340;52.004;5.908;2023-03-01T11:46:43;6.20;53.30
42037;DHT22;30340;52.004;5.908;2023-03-01T11:52:18;6.30;54.20
42037;DHT22;30340;52.004;5.908;2023-03-01T11:55:20;6.40;54.20
42037;DHT22;30340;52.004;5.908;2023-03-01T12:11:16;6.60;52.90
42037;DHT22;30340;52.004;5.908;2023-03-01T12:17:01;6.90;54.20
42037;DHT22;30340;52.004;5.908;2023-03-01T12:27:54;7.10;52.30
42037;DHT22;30340;52.004;5.908;2023-03-01T12:36:07;7.00;52.50
42037;DHT22;30340;52.004;5.908;2023-03-01T12:38:48;7.00;52.20
42037;DHT22;30340;52.004;5.908;2023-03-01T12:41:37;7.00;51.10
42037;DHT22;30340;52.004;5.908;2023-03-01T12:44:31;7.20;52.30
42037;DHT22;30340;52.004;5.908;2023-03-01T12:50:04;7.40;52.20
42037;DHT22;30340;52.004;5.908;2023-03-01T12:52:39;7.70;52.20
42037;DHT22;30340;52.004;5.908;2023-03-01T12:58:02;7.90;52.30
42037;DHT22;30340;52.004;5.908;2023-03-01T13:00:36;7.80;51.30
42037;DHT22;30340;52.004;5.908;2023-03-01T13:09:10;8.10;51.40
42037;DHT22;30340;52.004;5.908;2023-03-01T13:11:41;8.30;51.60
42037;DHT22;30340;52.004;5.908;2023-03-01T13:16:46;8.30;50.00
42037;DHT22;30340;52.004;5.908;2023-03-01T13:19:25;8.40;51.40
42037;DHT22;30340;52.004;5.908;2023-03-01T13:21:53;8.60;50.10
42037;DHT22;30340;52.004;5.908;2023-03-01T13:24:40;8.50;49.30
42037;DHT22;30340;52.004;5.908;2023-03-01T13:29:53;8.20;48.20
42037;DHT22;30340;52.004;5.908;2023-03-01T13:32:26;8.20;49.30
42037;DHT22;30340;52.004;5.908;2023-03-01T13:37:45;8.40;49.30
42037;DHT22;30340;52.004;5.908;2023-03-01T13:42:48;8.80;49.90
42037;DHT22;30340;52.004;5.908;2023-03-01T13:45:39;9.00;50.10
42037;DHT22;30340;52.004;5.908;2023-03-01T13:48:18;9.10;50.20
42037;DHT22;30340;52.004;5.908;2023-03-01T13:51:05;9.30;49.80
42037;DHT22;30340;52.004;5.908;2023-03-01T13:53:42;9.40;48.50
42037;DHT22;30340;52.004;5.908;2023-03-01T13:56:17;9.40;50.00
42037;DHT22;30340;52.004;5.908;2023-03-01T13:59:01;9.60;50.60
42037;DHT22;30340;52.004;5.908;2023-03-01T14:01:30;9.80;50.80
42037;DHT22;30340;52.004;5.908;2023-03-01T14:03:57;9.90;50.50
42037;DHT22;30340;52.004;5.908;2023-03-01T14:06:30;9.80;50.20
42037;DHT22;30340;52.004;5.908;2023-03-01T14:09:10;9.90;50.70
42037;DHT22;30340;52.004;5.908;2023-03-01T14:20:18;9.10;49.30
42037;DHT22;30340;52.004;5.908;2023-03-01T14:22:45;9.30;50.00
42037;DHT22;30340;52.004;5.908;2023-03-01T14:25:20;9.40;49.90
42037;DHT22;30340;52.004;5.908;2023-03-01T14:27:55;9.50;50.30
42037;DHT22;30340;52.004;5.908;2023-03-01T14:30:34;9.60;50.40
42037;DHT22;30340;52.004;5.908;2023-03-01T14:33:04;9.70;50.10
42037;DHT22;30340;52.004;5.908;2023-03-01T14:35:34;9.70;47.50
42037;DHT22;30340;52.004;5.908;2023-03-01T14:38:00;9.50;48.10
42037;DHT22;30340;52.004;5.908;2023-03-01T14:40:30;9.30;47.10
42037;DHT22;30340;52.004;5.908;2023-03-01T14:42:58;9.30;49.30
42037;DHT22;30340;52.004;5.908;2023-03-01T14:45:27;9.40;49.50
42037;DHT22;30340;52.004;5.908;2023-03-01T14:47:55;9.40;48.50
42037;DHT22;30340;52.004;5.908;2023-03-01T14:50:26;9.40;49.80
42037;DHT22;30340;52.004;5.908;2023-03-01T14:52:54;9.50;49.30
42037;DHT22;30340;52.004;5.908;2023-03-01T14:55:33;9.40;49.10
42037;DHT22;30340;52.004;5.908;2023-03-01T14:58:03;9.40;48.50
42037;DHT22;30340;52.004;5.908;2023-03-01T15:00:30;9.30;47.70
42037;DHT22;30340;52.004;5.908;2023-03-01T15:03:06;9.10;48.30
42037;DHT22;30340;52.004;5.908;2023-03-01T15:05:35;9.10;49.20
42037;DHT22;30340;52.004;5.908;2023-03-01T15:08:02;9.10;49.30
42037;DHT22;30340;52.004;5.908;2023-03-01T15:10:31;9.10;48.20
42037;DHT22;30340;52.004;5.908;2023-03-01T15:13:13;9.10;48.90
42037;DHT22;30340;52.004;5.908;2023-03-01T15:15:45;9.10;49.60
42037;DHT22;30340;52.004;5.908;2023-03-01T15:18:19;9.00;46.60
42037;DHT22;30340;52.004;5.908;2023-03-01T15:20:47;8.70;47.30
42037;DHT22;30340;52.004;5.908;2023-03-01T15:23:40;8.70;48.40
42037;DHT22;30340;52.004;5.908;2023-03-01T15:26:05;8.60;48.80
42037;DHT22;30340;52.004;5.908;2023-03-01T15:28:42;8.60;48.80
42037;DHT22;30340;52.004;5.908;2023-03-01T15:31:26;8.60;49.50
42037;DHT22;30340;52.004;5.908;2023-03-01T15:33:52;8.60;49.10
42037;DHT22;30340;52.004;5.908;2023-03-01T15:36:44;8.50;48.20
42037;DHT22;30340;52.004;5.908;2023-03-01T15:39:31;8.40;49.20
42037;DHT22;30340;52.004;5.908;2023-03-01T15:44:32;8.50;50.30
42037;DHT22;30340;52.004;5.908;2023-03-01T15:46:58;8.50;50.60
42037;DHT22;30340;52.004;5.908;2023-03-01T15:49:40;8.40;49.90
42037;DHT22;30340;52.004;5.908;2023-03-01T15:55:18;8.30;49.80
42037;DHT22;30340;52.004;5.908;2023-03-01T15:57:44;8.10;48.90
42037;DHT22;30340;52.004;5.908;2023-03-01T16:00:11;8.00;49.40
42037;DHT22;30340;52.004;5.908;2023-03-01T16:02:39;8.10;50.40
42037;DHT22;30340;52.004;5.908;2023-03-01T16:05:05;8.10;50.40
42037;DHT22;30340;52.004;5.908;2023-03-01T16:07:31;8.10;49.20
42037;DHT22;30340;52.004;5.908;2023-03-01T16:09:57;8.00;50.00
42037;DHT22;30340;52.004;5.908;2023-03-01T16:12:22;8.00;50.50
42037;DHT22;30340;52.004;5.908;2023-03-01T16:14:49;8.00;50.70
42037;DHT22;30340;52.004;5.908;2023-03-01T16:17:15;8.00;50.40
42037;DHT22;30340;52.004;5.908;2023-03-01T16:19:41;8.00;50.10
42037;DHT22;30340;52.004;5.908;2023-03-01T16:22:08;7.90;50.10
42037;DHT22;30340;52.004;5.908;2023-03-01T16:24:34;7.80;49.80
42037;DHT22;30340;52.004;5.908;2023-03-01T16:27:01;7.90;50.80
42037;DHT22;30340;52.004;5.908;2023-03-01T16:29:27;7.80;50.90
42037;DHT22;30340;52.004;5.908;2023-03-01T16:31:54;7.80;50.60
42037;DHT22;30340;52.004;5.908;2023-03-01T16:34:20;7.70;49.80
42037;DHT22;30340;52.004;5.908;2023-03-01T16:36:47;7.70;49.80
42037;DHT22;30340;52.004;5.908;2023-03-01T16:39:12;7.70;51.00
42037;DHT22;30340;52.004;5.908;2023-03-01T16:41:38;7.70;51.10
42037;DHT22;30340;52.004;5.908;2023-03-01T16:44:04;7.70;51.30
42037;DHT22;30340;52.004;5.908;2023-03-01T16:46:29;7.50;49.20
42037;DHT22;30340;52.004;5.908;2023-03-01T16:48:55;7.50;50.80
42037;DHT22;30340;52.004;5.908;2023-03-01T16:51:22;7.50;50.50
42037;DHT22;30340;52.004;5.908;2023-03-01T16:53:49;7.40;51.40
42037;DHT22;30340;52.004;5.908;2023-03-01T16:56:15;7.50;52.00
42037;DHT22;30340;52.004;5.908;2023-03-01T16:58:41;7.50;52.20
42037;DHT22;30340;52.004;5.908;2023-03-01T17:01:13;7.50;52.50
42037;DHT22;30340;52.004;5.908;2023-03-01T17:03:39;7.40;51.90
42037;DHT22;30340;52.004;5.908;2023-03-01T17:06:09;7.30;52.40
42037;DHT22;30340;52.004;5.908;2023-03-01T17:08:36;7.30;52.90
42037;DHT22;30340;52.004;5.908;2023-03-01T17:11:13;7.30;53.20
42037;DHT22;30340;52.004;5.908;2023-03-01T17:13:40;7.30;53.60
42037;DHT22;30340;52.004;5.908;2023-03-01T17:16:08;7.30;53.80
42037;DHT22;30340;52.004;5.908;2023-03-01T17:18:34;7.30;54.00
42037;DHT22;30340;52.004;5.908;2023-03-01T17:21:00;7.20;54.10
42037;DHT22;30340;52.004;5.908;2023-03-01T17:23:27;7.20;54.40
42037;DHT22;30340;52.004;5.908;2023-03-01T17:25:53;7.20;54.60
42037;DHT22;30340;52.004;5.908;2023-03-01T17:28:21;7.10;54.80
42037;DHT22;30340;52.004;5.908;2023-03-01T17:30:47;7.10;55.10
42037;DHT22;30340;52.004;5.908;2023-03-01T17:33:13;7.00;55.30
42037;DHT22;30340;52.004;5.908;2023-03-01T17:35:39;7.00;55.50
42037;DHT22;30340;52.004;5.908;2023-03-01T17:38:05;6.90;55.70
42037;DHT22;30340;52.004;5.908;2023-03-01T17:40:32;6.80;55.80
42037;DHT22;30340;52.004;5.908;2023-03-01T17:42:58;6.80;56.10